Airfield :
LOGIN :

Register | Disclaimer

   EN    FR    IT 

 










Legend :    VFR   Marginal VFR   IFR   Intensive IFR   Very Intensive IFR
Visi :
Ceiling :
>= 8 km
>= 3000ft
5 to 8 km
1000 to 3000 ft
1500m to 5 km
500 to 1000 ft
800 to 1500m
200 to 500 ft
< 800m
< 200 ft
Symbols :   Thunderstorms  Fog  Heavy snow  Heavy precipitations  Wind > 20 kt
SIGMETs :     Misc.  Thunderstorms  Icing  Turbulence  Mountain Waves  Volcanic Ashes






- Airport Elevation : 1708 ft
- IATA code : SJJ


LQSA - Sarajevo

CURRENT METAR :
  • 171830Z VRB02KT CAVOK 07/00 Q1021 NOSIG

EXPIRED METARs :
  • 171800Z 20003KT 120V250 CAVOK 08/01 Q1021 NOSIG
  • 171730Z 18003KT 080V210 CAVOK 09/01 Q1021 NOSIG
  • 171700Z 13004KT 070V190 CAVOK 10/00 Q1021 NOSIG
  • 171630Z 16004KT 110V220 CAVOK 13/M01 Q1021 NOSIG
  • 171600Z VRB02KT CAVOK 15/M01 Q1020 NOSIG

TAF COR TAF LQSA
Valid from the 17 at 18:00 until the 18 at 18:00 UTC


171706Z 1718/1818 13006KT CAVOK TX14/1813Z TNM00/1805Z
PROB40 1804/1808 2000 BR
TEMPO 1811/1818 35010KT



MET'MAP, your aeronautical weather chart ! - Copyright ORBIFLY December 2007 - Disclaimer

ORBIFLY MET'MAP TEAM :

Programming & Development : Alexandra Zaïnal
Concept & original design : Baudouin d'Aumeries
Assistance for programming : Marc-Olivier Méhu
Technical & hardware support : Manuel Goepfert

Contact : metmap@orbifly.com




SOURCES & CREDITS :

   NOAA